createdAt,value
2018-03-03T00:00:51.612Z,171.05
2018-03-03T00:03:19.131Z,141.30
2018-03-03T00:05:46.641Z,165.00
2018-03-03T00:08:14.170Z,157.62
2018-03-03T00:10:41.678Z,150.30
2018-03-03T00:13:09.939Z,179.63
2018-03-03T00:15:37.465Z,171.80
2018-03-03T00:18:04.974Z,156.23
2018-03-03T00:20:33.272Z,178.98
2018-03-03T00:23:00.784Z,170.57
2018-03-03T00:25:28.310Z,171.95
2018-03-03T00:27:55.825Z,182.68
2018-03-03T00:30:23.355Z,174.25
2018-03-03T00:32:50.857Z,177.00
2018-03-03T00:35:19.137Z,167.73
2018-03-03T00:37:47.425Z,182.32
2018-03-03T00:40:14.942Z,173.90
2018-03-03T00:42:42.467Z,185.25
2018-03-03T00:45:09.973Z,192.30
2018-03-03T00:47:37.495Z,163.12
2018-03-03T00:50:04.992Z,178.57
2018-03-03T00:52:32.503Z,163.45
2018-03-03T00:55:00.013Z,165.35
2018-03-03T00:57:27.537Z,186.48
2018-03-03T00:59:55.048Z,166.20
2018-03-03T01:02:23.316Z,185.30
2018-03-03T01:04:51.618Z,162.65
2018-03-03T01:07:19.133Z,171.30
2018-03-03T01:09:46.667Z,162.52
2018-03-03T01:12:14.176Z,184.82
2018-03-03T01:14:42.471Z,169.15
2018-03-03T01:17:10.732Z,192.00
2018-03-03T01:19:39.017Z,173.27
2018-03-03T01:22:07.284Z,170.30
2018-03-03T01:24:35.581Z,185.05
2018-03-03T01:27:03.083Z,180.43
2018-03-03T01:29:30.585Z,187.37
2018-03-03T01:31:58.885Z,194.77
2018-03-03T01:34:26.388Z,191.90
2018-03-03T01:36:53.916Z,185.27
2018-03-03T01:39:21.425Z,177.82
2018-03-03T01:41:48.948Z,165.80
2018-03-03T01:44:16.463Z,161.10
2018-03-03T01:46:44.752Z,176.73
2018-03-03T01:49:13.025Z,167.48
2018-03-03T01:51:42.008Z,149.30
2018-03-03T01:54:10.298Z,156.45
2018-03-03T01:56:39.284Z,158.90
2018-03-03T01:59:07.575Z,173.62
2018-03-03T02:01:35.085Z,155.05
2018-03-03T02:04:02.605Z,168.27
2018-03-03T02:06:30.109Z,150.00
2018-03-03T02:08:57.622Z,146.57
2018-03-03T02:11:25.161Z,184.23
2018-03-03T02:13:53.434Z,166.25
2018-03-03T02:16:21.736Z,177.25
2018-03-03T02:18:49.247Z,164.20
2018-03-03T02:21:16.769Z,182.73
2018-03-03T02:23:44.267Z,152.95
2018-03-03T02:26:11.778Z,185.77
2018-03-03T02:28:39.300Z,203.27
2018-03-03T02:31:06.804Z,209.30
2018-03-03T02:33:34.328Z,203.40
2018-03-03T02:36:02.602Z,186.32
2018-03-03T02:38:30.906Z,174.20
2018-03-03T02:40:58.407Z,186.80
2018-03-03T02:43:25.932Z,202.25
2018-03-03T02:45:53.472Z,167.50
2018-03-03T02:48:21.740Z,201.20
2018-03-03T02:50:50.066Z,174.75
2018-03-03T02:53:17.556Z,176.82
2018-03-03T02:55:45.084Z,175.35
2018-03-03T02:58:12.586Z,171.62
2018-03-03T03:00:40.105Z,185.55
2018-03-03T03:03:07.636Z,176.93
2018-03-03T03:05:35.133Z,205.52
2018-03-03T03:08:02.654Z,182.98
2018-03-03T03:10:30.155Z,175.98
2018-03-03T03:12:57.690Z,200.18
2018-03-03T03:15:25.193Z,190.40
2018-03-03T03:17:53.094Z,192.68
2018-03-03T03:20:20.599Z,193.00
2018-03-03T03:22:48.106Z,188.32
2018-03-03T03:25:16.401Z,157.48
2018-03-03T03:27:43.909Z,180.27
2018-03-03T03:30:11.458Z,162.55
2018-03-03T03:32:38.968Z,141.48
2018-03-03T03:35:07.253Z,145.15
2018-03-03T03:37:34.782Z,167.90
2018-03-03T03:40:02.277Z,146.73
2018-03-03T03:42:29.809Z,150.82
2018-03-03T03:44:58.094Z,171.43
2018-03-03T03:47:26.386Z,146.25
2018-03-03T03:49:53.904Z,160.02
2018-03-03T03:52:21.423Z,143.18
2018-03-03T03:54:48.929Z,149.12
2018-03-03T03:57:16.456Z,133.95
2018-03-03T03:59:43.969Z,173.02
2018-03-03T04:02:12.241Z,165.20
2018-03-03T04:04:40.520Z,157.25
2018-03-03T04:07:08.222Z,154.77
2018-03-03T04:09:35.777Z,151.02
2018-03-03T04:12:03.279Z,131.05
2018-03-03T04:14:30.792Z,146.93
2018-03-03T04:16:58.287Z,135.90
2018-03-03T04:19:25.790Z,142.57
2018-03-03T04:21:54.080Z,127.85
2018-03-03T04:24:21.582Z,146.02
2018-03-03T04:26:49.100Z,121.37
2018-03-03T04:29:16.595Z,117.95
2018-03-03T04:31:44.107Z,115.03
2018-03-03T04:34:12.366Z,118.82
2018-03-03T04:36:39.891Z,105.18
2018-03-03T04:39:07.599Z,126.07
2018-03-03T04:41:35.856Z,128.73
2018-03-03T04:44:03.372Z,126.93
2018-03-03T04:46:30.866Z,120.20
2018-03-03T04:48:58.378Z,130.77
2018-03-03T04:51:25.868Z,133.52
2018-03-03T04:53:53.399Z,128.57
2018-03-03T04:56:20.903Z,124.97
2018-03-03T04:59:09.919Z,142.98
2018-03-03T05:01:38.058Z,123.68
2018-03-03T05:07:06.616Z,119.50
2018-03-03T05:09:34.898Z,125.15
2018-03-03T05:12:02.400Z,109.75
2018-03-03T05:17:51.596Z,119.82
2018-03-03T05:20:33.699Z,118.05
2018-03-03T05:26:11.685Z,108.57
2018-03-03T05:28:44.879Z,125.47
2018-03-03T05:31:18.110Z,111.70
2018-03-03T05:33:52.128Z,121.78
2018-03-03T05:36:22.308Z,118.43
2018-03-03T05:41:59.346Z,135.75
2018-03-03T05:44:33.373Z,132.10
2018-03-03T05:47:11.579Z,110.63
2018-03-03T05:49:55.671Z,91.32
2018-03-03T05:55:52.618Z,99.68
2018-03-03T06:01:32.369Z,100.80
2018-03-03T06:04:15.550Z,120.60
2018-03-03T06:06:48.728Z,133.40
2018-03-03T06:09:17.836Z,122.87
2018-03-03T06:11:45.346Z,125.60
2018-03-03T06:14:12.900Z,124.43
2018-03-03T06:16:41.172Z,105.03
2018-03-03T06:19:09.486Z,122.78
2018-03-03T06:21:37.009Z,125.05
2018-03-03T06:24:05.296Z,120.00
2018-03-03T06:26:33.599Z,137.00
2018-03-03T06:29:01.104Z,134.50
2018-03-03T06:31:28.640Z,139.75
2018-03-03T06:33:56.164Z,136.73
2018-03-03T06:36:23.715Z,161.90
2018-03-03T06:38:52.008Z,146.18
2018-03-03T06:41:19.566Z,150.75
2018-03-03T06:43:47.118Z,144.25
2018-03-03T06:46:14.687Z,160.07
2018-03-03T06:48:43.148Z,139.02
2018-03-03T06:51:11.425Z,144.60
2018-03-03T06:53:39.729Z,132.43
2018-03-03T06:56:07.234Z,149.65
2018-03-03T06:58:34.764Z,140.93
2018-03-03T07:01:02.264Z,138.80
2018-03-03T07:03:29.978Z,143.93
2018-03-03T07:05:57.495Z,155.75
2018-03-03T07:08:26.995Z,164.80
2018-03-03T07:10:54.517Z,179.87
2018-03-03T07:13:22.020Z,168.27
2018-03-03T07:15:49.549Z,177.25
2018-03-03T07:18:17.064Z,186.93
2018-03-03T07:20:44.642Z,177.12
2018-03-03T07:23:12.346Z,184.60
2018-03-03T07:25:40.650Z,181.70
2018-03-03T07:28:08.927Z,181.55
2018-03-03T07:30:37.244Z,169.37
2018-03-03T07:33:04.766Z,174.68
2018-03-03T07:35:33.094Z,169.93
2018-03-03T07:38:00.587Z,172.45
2018-03-03T07:40:28.096Z,159.32
2018-03-03T07:42:55.625Z,170.27
2018-03-03T07:45:23.929Z,148.13
2018-03-03T07:47:51.459Z,161.32
2018-03-03T07:50:19.757Z,158.23
2018-03-03T07:52:47.301Z,151.85
2018-03-03T07:55:15.584Z,138.57
2018-03-03T07:57:43.891Z,145.43
2018-03-03T08:00:11.438Z,140.73
2018-03-03T08:02:39.000Z,142.85
2018-03-03T08:05:06.531Z,135.90
2018-03-03T08:07:34.815Z,138.07
2018-03-03T08:10:03.117Z,152.10
2018-03-03T08:12:30.652Z,141.95
2018-03-03T08:14:58.160Z,137.43
2018-03-03T08:17:25.688Z,149.62
2018-03-03T08:19:53.196Z,126.65
2018-03-03T08:22:20.738Z,126.75
2018-03-03T08:24:48.248Z,108.80
2018-03-03T08:27:16.556Z,132.10
2018-03-03T08:29:44.102Z,130.30
2018-03-03T08:32:11.613Z,113.43
2018-03-03T08:34:39.164Z,102.82
2018-03-03T08:37:06.683Z,114.62
2018-03-03T08:39:34.237Z,108.07
2018-03-03T08:42:02.518Z,103.12
2018-03-03T08:44:30.860Z,94.03
2018-03-03T08:46:58.360Z,85.15
2018-03-03T08:49:25.904Z,90.25
2018-03-03T08:51:54.188Z,85.22
2018-03-03T08:54:22.472Z,88.28
2018-03-03T08:56:50.024Z,99.47
2018-03-03T08:59:18.293Z,109.25
2018-03-03T09:01:46.585Z,107.82
2018-03-03T09:04:14.847Z,98.30
2018-03-03T09:06:43.138Z,85.22
2018-03-03T09:09:11.404Z,90.07
2018-03-03T09:11:39.709Z,85.68
2018-03-03T09:14:07.222Z,92.40
2018-03-03T09:16:34.736Z,88.03
2018-03-03T09:19:02.260Z,89.87
2018-03-03T09:21:29.781Z,83.65
2018-03-03T09:23:57.316Z,84.15
2018-03-03T09:26:24.816Z,91.45
2018-03-03T09:28:52.350Z,84.53
2018-03-03T09:31:19.865Z,77.00
2018-03-03T09:33:48.168Z,83.57
2018-03-03T09:36:15.683Z,87.53
2018-03-03T09:38:43.185Z,75.28
2018-03-03T09:41:10.697Z,85.35
2018-03-03T09:43:38.197Z,78.93
2018-03-03T09:46:05.724Z,70.82
2018-03-03T09:48:33.220Z,72.18
2018-03-03T09:51:00.736Z,55.35
2018-03-03T09:53:28.245Z,71.18
2018-03-03T09:55:55.777Z,61.58
2018-03-03T09:58:23.284Z,66.97
2018-03-03T10:00:50.797Z,61.05
2018-03-03T10:03:19.087Z,69.03
2018-03-03T10:05:46.581Z,60.95
2018-03-03T10:08:14.122Z,66.90
2018-03-03T10:10:41.613Z,74.68
2018-03-03T10:13:09.142Z,68.75
2018-03-03T10:15:36.643Z,79.80
2018-03-03T10:18:04.186Z,76.40
2018-03-03T10:20:31.696Z,69.95
2018-03-03T10:22:59.995Z,60.15
2018-03-03T10:25:27.518Z,66.85
2018-03-03T10:27:55.788Z,68.82
2018-03-03T10:30:23.304Z,61.35
2018-03-03T10:32:50.820Z,63.08
2018-03-03T10:35:19.108Z,55.40
2018-03-03T10:37:46.668Z,65.18
2018-03-03T10:40:14.198Z,55.83
2018-03-03T10:42:41.771Z,68.18
2018-03-03T10:45:10.068Z,59.97
2018-03-03T10:47:37.596Z,56.17
2018-03-03T10:50:05.134Z,67.80
2018-03-03T10:52:32.668Z,65.87
2018-03-03T10:55:00.205Z,72.55
2018-03-03T10:57:28.502Z,64.57
2018-03-03T10:59:56.021Z,64.30
2018-03-03T11:02:24.326Z,63.40
2018-03-03T11:04:51.831Z,47.42
2018-03-03T11:07:19.351Z,57.90
2018-03-03T11:09:46.871Z,62.97
2018-03-03T11:12:14.414Z,57.53
2018-03-03T11:14:41.926Z,62.83
2018-03-03T11:17:09.427Z,46.75
2018-03-03T11:19:36.952Z,64.00
2018-03-03T11:22:04.458Z,64.62
2018-03-03T11:24:32.008Z,64.30
2018-03-03T11:26:59.513Z,56.35
2018-03-03T11:29:27.796Z,54.67
2018-03-03T11:31:55.325Z,48.85
2018-03-03T11:34:22.953Z,55.55
2018-03-03T11:36:50.460Z,51.50
2018-03-03T11:39:18.744Z,50.67
2018-03-03T11:41:47.030Z,49.53
2018-03-03T11:44:14.541Z,52.53
2018-03-03T11:46:42.091Z,52.13
2018-03-03T11:49:09.589Z,47.38
2018-03-03T11:51:37.117Z,39.72
2018-03-03T11:54:04.674Z,51.72
2018-03-03T11:56:32.184Z,56.72
2018-03-03T11:59:00.488Z,56.72
2018-03-03T12:01:28.013Z,45.95
2018-03-03T12:03:56.303Z,57.47
2018-03-03T12:06:23.806Z,40.55
2018-03-03T12:08:51.321Z,35.83
2018-03-03T12:11:18.820Z,44.05
2018-03-03T12:13:46.320Z,42.15
2018-03-03T12:16:13.837Z,39.75
2018-03-03T12:18:41.339Z,32.60
2018-03-03T12:21:08.879Z,37.65
2018-03-03T12:23:36.383Z,34.58
2018-03-03T12:26:03.911Z,30.55
2018-03-03T12:28:31.414Z,40.50
2018-03-03T12:30:58.947Z,33.83
2018-03-03T12:33:27.220Z,36.53
2018-03-03T12:35:55.497Z,36.78
2018-03-03T12:38:23.789Z,28.58
2018-03-03T12:40:51.301Z,35.78
2018-03-03T12:43:18.896Z,21.55
2018-03-03T12:45:46.447Z,29.73
2018-03-03T12:48:14.806Z,26.48
2018-03-03T12:50:42.356Z,24.30
2018-03-03T12:53:09.871Z,31.23
2018-03-03T12:55:37.383Z,30.17
2018-03-03T12:58:04.927Z,24.75
2018-03-03T13:00:32.461Z,27.42
2018-03-03T13:02:59.976Z,20.85
2018-03-03T13:05:27.499Z,29.33
2018-03-03T13:07:55.065Z,26.12
2018-03-03T13:10:22.589Z,27.50
2018-03-03T13:12:50.120Z,29.33
2018-03-03T13:15:17.669Z,32.53
2018-03-03T13:17:45.178Z,24.02
2018-03-03T13:20:12.682Z,31.25
2018-03-03T13:22:40.198Z,21.50
2018-03-03T13:25:07.720Z,22.37
2018-03-03T13:27:35.292Z,19.95
2018-03-03T13:30:03.553Z,32.30
2018-03-03T13:32:31.093Z,23.05
2018-03-03T13:34:58.600Z,25.33
2018-03-03T13:37:26.883Z,26.87
2018-03-03T13:39:54.444Z,28.85
2018-03-03T13:42:21.976Z,24.00
2018-03-03T13:44:49.496Z,25.58
2018-03-03T13:47:17.024Z,31.73
2018-03-03T13:49:44.585Z,27.15
2018-03-03T13:52:12.087Z,28.87
2018-03-03T13:54:39.629Z,26.95
2018-03-03T13:57:07.149Z,28.67
2018-03-03T13:59:35.416Z,35.50
2018-03-03T14:02:02.953Z,28.05
2018-03-03T14:04:30.484Z,38.10
2018-03-03T14:06:58.005Z,25.40
2018-03-03T14:09:26.278Z,26.45
2018-03-03T14:11:53.801Z,28.45
2018-03-03T14:14:21.291Z,25.58
2018-03-03T14:16:48.805Z,37.05
2018-03-03T14:19:16.318Z,33.63
2018-03-03T14:21:44.589Z,27.85
2018-03-03T14:24:12.117Z,34.47
2018-03-03T14:26:39.625Z,31.85
2018-03-03T14:29:07.944Z,33.30
2018-03-03T14:31:35.458Z,32.58
2018-03-03T14:34:03.776Z,37.78
2018-03-03T14:36:31.293Z,34.15
2018-03-03T14:38:59.592Z,35.75
2018-03-03T14:41:27.133Z,34.40
2018-03-03T14:43:55.414Z,33.55
2018-03-03T14:46:23.720Z,27.00
2018-03-03T14:48:51.226Z,37.97
2018-03-03T14:51:18.749Z,32.20
2018-03-03T14:53:46.240Z,32.03
2018-03-03T14:56:13.792Z,35.35
2018-03-03T14:58:41.289Z,28.33
2018-03-03T15:01:09.576Z,32.63
2018-03-03T15:03:37.094Z,29.00
2018-03-03T15:06:04.600Z,42.05
2018-03-03T15:08:32.114Z,35.38
2018-03-03T15:10:59.613Z,38.60
2018-03-03T15:13:27.161Z,32.40
2018-03-03T15:15:55.449Z,28.65
2018-03-03T15:18:22.983Z,36.00
2018-03-03T15:20:51.256Z,38.13
2018-03-03T15:23:18.782Z,35.72
2018-03-03T15:25:46.290Z,30.77
2018-03-03T15:28:14.582Z,27.08
2018-03-03T15:30:42.863Z,32.22
2018-03-03T15:33:10.374Z,32.83
2018-03-03T15:35:37.897Z,31.75
2018-03-03T15:38:05.393Z,32.22
2018-03-03T15:40:32.930Z,30.25
2018-03-03T15:43:00.478Z,35.75
2018-03-03T15:45:27.996Z,33.40
2018-03-03T15:47:56.335Z,33.65
2018-03-03T15:50:23.877Z,44.97
2018-03-03T15:52:51.384Z,33.25
2018-03-03T15:55:18.897Z,35.50
2018-03-03T15:57:46.420Z,34.70
2018-03-03T16:00:14.705Z,48.72
2018-03-03T16:02:42.996Z,35.90
2018-03-03T16:05:10.504Z,34.35
2018-03-03T16:07:38.029Z,32.15
2018-03-03T16:10:05.545Z,25.98
2018-03-03T16:12:33.080Z,20.73
2018-03-03T16:15:00.574Z,24.58
2018-03-03T16:17:28.863Z,27.65
2018-03-03T16:19:56.398Z,15.48
2018-03-03T16:22:23.941Z,32.00
2018-03-03T16:24:51.498Z,22.23
2018-03-03T16:27:19.083Z,21.67
2018-03-03T16:29:46.572Z,18.77
2018-03-03T16:32:14.068Z,21.73
2018-03-03T16:34:41.582Z,23.30
2018-03-03T16:37:09.098Z,26.55
2018-03-03T16:39:36.605Z,31.08
2018-03-03T16:42:04.146Z,36.65
2018-03-03T16:44:32.416Z,34.58
2018-03-03T16:46:59.946Z,22.10
2018-03-03T16:49:27.446Z,25.62
2018-03-03T16:51:55.017Z,16.30
2018-03-03T16:54:23.280Z,17.73
2018-03-03T16:56:51.577Z,15.45
2018-03-03T16:59:20.037Z,16.42
2018-03-03T17:01:48.302Z,24.48
2018-03-03T17:04:15.827Z,18.60
2018-03-03T17:06:43.351Z,19.87
2018-03-03T17:09:10.876Z,22.23
2018-03-03T17:11:38.388Z,27.48
2018-03-03T17:14:05.913Z,29.00
2018-03-03T17:16:34.196Z,21.52
2018-03-03T17:19:02.488Z,27.08
2018-03-03T17:21:29.981Z,29.92
2018-03-03T17:23:57.504Z,29.98
2018-03-03T17:26:25.025Z,27.15
2018-03-03T17:28:52.539Z,29.85
2018-03-03T17:31:20.066Z,29.75
2018-03-03T17:33:48.344Z,34.80
2018-03-03T17:36:16.761Z,25.60
2018-03-03T17:38:44.294Z,32.83
2018-03-03T17:41:12.585Z,30.25
2018-03-03T17:43:40.948Z,29.17
2018-03-03T17:46:09.230Z,30.75
2018-03-03T17:48:37.501Z,33.72
2018-03-03T17:51:05.784Z,25.40
2018-03-03T17:53:34.061Z,32.05
2018-03-03T17:56:02.355Z,30.25
2018-03-03T17:58:29.885Z,29.50
2018-03-03T18:00:58.403Z,30.20
2018-03-03T18:03:25.945Z,33.83
2018-03-03T18:05:54.257Z,34.63
2018-03-03T18:08:21.780Z,27.65
2018-03-03T18:10:50.056Z,33.47
2018-03-03T18:13:36.080Z,28.73
2018-03-03T18:16:03.572Z,33.45
2018-03-03T18:18:31.068Z,30.25
2018-03-03T18:20:59.360Z,31.55
2018-03-03T18:23:26.881Z,32.10
2018-03-03T18:25:54.408Z,29.42
2018-03-03T18:28:21.934Z,35.03
2018-03-03T18:30:50.422Z,32.78
2018-03-03T18:33:17.937Z,28.02
2018-03-03T18:35:45.464Z,40.85
2018-03-03T18:38:12.964Z,28.77
2018-03-03T18:40:40.494Z,29.77
2018-03-03T18:43:08.022Z,34.53
2018-03-03T18:45:35.535Z,41.35
2018-03-03T18:48:03.052Z,30.70
2018-03-03T18:50:30.564Z,29.75
2018-03-03T18:52:58.096Z,32.97
2018-03-03T18:55:25.594Z,30.70
2018-03-03T18:57:53.892Z,27.75
2018-03-03T19:00:21.404Z,28.50
2018-03-03T19:02:48.948Z,26.00
2018-03-03T19:05:16.468Z,32.40
2018-03-03T19:07:43.968Z,19.80
2018-03-03T19:10:11.498Z,21.48
2018-03-03T19:12:38.989Z,19.85
2018-03-03T19:15:06.554Z,27.55
2018-03-03T19:17:34.024Z,26.52
2018-03-03T19:20:01.581Z,29.25
2018-03-03T19:22:29.144Z,31.30
2018-03-03T19:24:56.717Z,26.87
2018-03-03T19:27:24.224Z,25.42
2018-03-03T19:29:51.796Z,27.23
2018-03-03T19:32:19.342Z,27.87
2018-03-03T19:34:46.854Z,29.30
2018-03-03T19:37:14.383Z,24.15
2018-03-03T19:39:41.892Z,23.85
2018-03-03T19:42:10.204Z,23.00
2018-03-03T19:44:37.709Z,28.08
2018-03-03T19:47:05.217Z,30.12
2018-03-03T19:49:32.739Z,33.55
2018-03-03T19:52:00.279Z,32.28
2018-03-03T19:54:27.848Z,34.72
2018-03-03T19:56:55.355Z,33.83
2018-03-03T19:59:22.891Z,37.70
2018-03-03T20:01:51.173Z,35.33
2018-03-03T20:04:18.704Z,36.58
2018-03-03T20:06:46.209Z,44.83
2018-03-03T20:09:13.766Z,38.92
2018-03-03T20:11:42.023Z,38.45
2018-03-03T20:14:09.552Z,38.78
2018-03-03T20:16:37.083Z,51.90
2018-03-03T20:19:04.606Z,41.63
2018-03-03T20:21:32.948Z,48.70
2018-03-03T20:24:00.458Z,43.95
2018-03-03T20:26:27.988Z,46.22
2018-03-03T20:28:55.490Z,43.58
2018-03-03T20:31:22.992Z,43.13
2018-03-03T20:33:50.561Z,42.65
2018-03-03T20:36:18.077Z,50.50
2018-03-03T20:38:45.608Z,49.20
2018-03-03T20:41:13.868Z,58.83
2018-03-03T20:43:41.403Z,51.90
2018-03-03T20:46:08.933Z,52.05
2018-03-03T20:48:36.509Z,49.08
2018-03-03T20:51:04.024Z,50.80
2018-03-03T20:53:31.542Z,48.72
2018-03-03T20:55:59.064Z,49.10
2018-03-03T20:58:27.513Z,51.95
2018-03-03T21:00:55.804Z,61.42
2018-03-03T21:03:23.318Z,50.60
2018-03-03T21:05:51.641Z,57.83
2018-03-03T21:08:19.152Z,65.68
2018-03-03T21:10:46.673Z,67.68
2018-03-03T21:13:14.196Z,57.67
2018-03-03T21:15:42.476Z,58.10
2018-03-03T21:18:09.998Z,62.40
2018-03-03T21:20:37.536Z,62.75
2018-03-03T21:23:05.068Z,63.75
2018-03-03T21:25:33.356Z,62.90
2018-03-03T21:28:00.885Z,57.70
2018-03-03T21:30:28.394Z,61.17
2018-03-03T21:32:55.937Z,70.45
2018-03-03T21:35:24.207Z,65.80
2018-03-03T21:37:52.508Z,66.85
2018-03-03T21:40:20.038Z,63.67
2018-03-03T21:42:48.313Z,68.10
2018-03-03T21:45:16.626Z,76.50
2018-03-03T21:47:44.130Z,65.03
2018-03-03T21:50:11.657Z,76.70
2018-03-03T21:52:39.179Z,67.93
2018-03-03T21:55:06.732Z,64.15
2018-03-03T21:57:35.002Z,68.65
2018-03-03T22:00:03.300Z,75.12
2018-03-03T22:02:31.571Z,71.95
2018-03-03T22:04:59.832Z,75.75
2018-03-03T22:07:28.140Z,66.95
2018-03-03T22:09:55.702Z,68.30
2018-03-03T22:12:23.247Z,64.07
2018-03-03T22:14:51.530Z,55.63
2018-03-03T22:17:19.063Z,60.65
2018-03-03T22:19:46.590Z,62.03
2018-03-03T22:22:14.113Z,61.10
2018-03-03T22:24:41.614Z,62.78
2018-03-03T22:27:09.145Z,60.90
2018-03-03T22:29:36.669Z,61.60
2018-03-03T22:32:04.962Z,50.85
2018-03-03T22:34:32.494Z,58.28
2018-03-03T22:36:59.996Z,61.72
2018-03-03T22:39:27.519Z,60.88
2018-03-03T22:41:55.015Z,57.53
2018-03-03T22:44:22.543Z,58.90
2018-03-03T22:46:50.824Z,50.58
2018-03-03T22:49:19.093Z,54.30
2018-03-03T22:51:46.633Z,48.78
2018-03-03T22:54:14.150Z,47.22
2018-03-03T22:56:41.671Z,52.95
2018-03-03T22:59:09.184Z,56.90
2018-03-03T23:01:36.717Z,51.42
2018-03-03T23:04:04.227Z,47.83
2018-03-03T23:06:31.747Z,46.30
2018-03-03T23:08:59.266Z,45.40
2018-03-03T23:11:26.793Z,44.25
2018-03-03T23:13:54.296Z,45.60
2018-03-03T23:16:22.576Z,34.45
2018-03-03T23:18:50.891Z,30.25
2018-03-03T23:21:19.340Z,35.80
2018-03-03T23:23:47.645Z,31.23
2018-03-03T23:26:15.168Z,29.95
2018-03-03T23:28:43.471Z,32.38
2018-03-03T23:31:10.985Z,26.48
2018-03-03T23:33:38.517Z,26.45
2018-03-03T23:36:06.020Z,28.02
2018-03-03T23:38:33.526Z,28.73
2018-03-03T23:41:01.056Z,23.62
2018-03-03T23:43:29.332Z,30.85
2018-03-03T23:45:57.634Z,24.30
2018-03-03T23:48:25.137Z,21.90
2018-03-03T23:50:52.664Z,22.35
2018-03-03T23:53:20.186Z,21.12
2018-03-03T23:55:48.477Z,20.62
2018-03-03T23:58:15.983Z,21.87
